Time;durP1;ratioP1;P1;durP2;ratioP2;P2;SDS_P1;SDS_P2;PMS_P1;PMS_P2;Temp;Humidity;BMP_temperature;BMP_pressure;BME280_temperature;BME280_humidity;BME280_pressure;Samples;Min_cycle;Max_cycle;Signal;HPM_P1;HPM_P2
2022/04/20 00:00:05;;;;;;;;;12.00;10.50;;;;;11.61;59.93;100402.38;5057310;28;46226;-76
2022/04/20 00:02:31;;;;;;;;;23.25;18.00;;;;;11.56;60.22;100398.06;5075073;27;45388;-76
2022/04/20 00:04:56;;;;;;;;;19.00;15.00;;;;;11.56;59.90;100395.41;5074853;27;45445;-76
2022/04/20 00:07:22;;;;;;;;;17.50;14.25;;;;;11.50;60.25;100379.72;5075021;28;45374;-76
2022/04/20 00:09:48;;;;;;;;;16.50;11.75;;;;;11.49;60.43;100383.28;5074059;28;45841;-76
2022/04/20 00:12:13;;;;;;;;;15.50;11.50;;;;;11.53;60.50;100392.00;5076788;27;45540;-76
2022/04/20 00:14:38;;;;;;;;;14.75;10.50;;;;;11.51;60.70;100391.19;5074426;27;45314;-76
2022/04/20 00:17:04;;;;;;;;;12.75;10.00;;;;;11.49;60.60;100399.16;5076753;28;45367;-76
2022/04/20 00:19:30;;;;;;;;;17.00;12.75;;;;;11.40;60.79;100380.00;5076501;28;46303;-76
2022/04/20 00:21:55;;;;;;;;;15.50;10.00;;;;;11.44;61.00;100390.47;5085476;27;45340;-77
2022/04/20 00:24:20;;;;;;;;;28.50;19.50;;;;;11.39;61.12;100397.66;5077476;27;45741;-76
2022/04/20 00:26:46;;;;;;;;;13.75;10.00;;;;;11.36;61.18;100395.09;5056880;28;45524;-77
2022/04/20 00:29:11;;;;;;;;;16.75;14.00;;;;;11.32;61.25;100388.13;5074708;28;45402;-76
2022/04/20 00:31:36;;;;;;;;;14.50;12.50;;;;;11.29;61.20;100389.06;5087067;27;45373;-75
2022/04/20 00:34:02;;;;;;;;;13.50;10.75;;;;;11.27;61.32;100387.41;5085061;27;45402;-76
2022/04/20 00:36:28;;;;;;;;;18.25;13.50;;;;;11.22;61.43;100384.88;5094771;27;45422;-77
2022/04/20 00:38:53;;;;;;;;;17.00;16.25;;;;;11.21;61.96;100391.06;5066754;27;47301;-75
2022/04/20 00:41:19;;;;;;;;;17.00;13.50;;;;;11.17;61.51;100387.63;5089080;27;45409;-76
2022/04/20 00:43:45;;;;;;;;;14.50;13.00;;;;;11.13;61.97;100385.97;5075196;28;45406;-76
2022/04/20 00:46:12;;;;;;;;;18.00;12.25;;;;;11.10;61.96;100388.69;5074193;27;45362;-77
2022/04/20 00:48:38;;;;;;;;;23.00;16.00;;;;;11.06;62.13;100373.81;5097852;27;45545;-75
2022/04/20 00:51:03;;;;;;;;;13.00;13.00;;;;;10.96;62.19;100367.88;5093228;27;45513;-76
2022/04/20 00:53:29;;;;;;;;;15.75;15.50;;;;;10.99;62.38;100381.03;5088295;27;45561;-76
2022/04/20 00:55:54;;;;;;;;;20.00;16.00;;;;;10.94;62.50;100368.81;5094524;27;45515;-76
2022/04/20 00:58:20;;;;;;;;;15.50;15.25;;;;;10.90;62.79;100377.72;5081834;27;45441;-75
2022/04/20 01:00:46;;;;;;;;;29.50;25.25;;;;;10.88;62.60;100374.25;5074177;28;45678;-76
2022/04/20 01:03:11;;;;;;;;;23.75;20.50;;;;;10.84;63.07;100369.06;5076653;27;46073;-76
2022/04/20 01:05:37;;;;;;;;;22.00;12.75;;;;;10.82;62.72;100370.00;5074171;28;45447;-77
2022/04/20 01:08:03;;;;;;;;;27.75;23.25;;;;;10.82;62.95;100365.56;5073883;28;45472;-76
2022/04/20 01:10:28;;;;;;;;;23.00;20.50;;;;;10.80;62.87;100362.09;5073685;28;45373;-76
2022/04/20 01:12:54;;;;;;;;;19.50;15.25;;;;;10.75;63.07;100353.41;5076032;27;45375;-76
2022/04/20 01:15:19;;;;;;;;;23.00;20.50;;;;;10.72;63.16;100361.41;5075276;28;45467;-75
2022/04/20 01:17:45;;;;;;;;;25.75;24.00;;;;;10.69;63.54;100368.53;5078161;28;45503;-76
2022/04/20 01:20:15;;;;;;;;;27.50;21.75;;;;;10.68;63.40;100372.97;5057694;28;45512;-76
2022/04/20 01:22:42;;;;;;;;;23.75;17.75;;;;;10.66;63.77;100358.94;5055997;28;45585;-75
2022/04/20 01:25:08;;;;;;;;;21.25;18.25;;;;;10.64;63.53;100356.31;5073977;28;45439;-76
2022/04/20 01:27:35;;;;;;;;;15.00;10.50;;;;;10.66;63.66;100361.56;5073135;28;45413;-76
2022/04/20 01:30:01;;;;;;;;;23.50;20.00;;;;;10.63;63.74;100356.34;5057945;28;45460;-74
2022/04/20 01:32:26;;;;;;;;;36.00;22.00;;;;;10.59;63.88;100358.19;5088260;27;45281;-76
2022/04/20 01:34:52;;;;;;;;;26.00;23.00;;;;;10.60;63.70;100354.66;5115534;27;45319;-76
2022/04/20 01:37:18;;;;;;;;;21.00;20.50;;;;;10.56;64.00;100357.41;5114476;27;46061;-77
2022/04/20 01:39:43;;;;;;;;;31.50;24.50;;;;;10.55;64.24;100355.66;5097215;27;45530;-77
2022/04/20 01:42:10;;;;;;;;;19.75;16.75;;;;;10.58;64.06;100361.75;5074042;27;45421;-77
2022/04/20 01:44:36;;;;;;;;;25.75;20.00;;;;;10.56;64.13;100362.69;5090606;27;45524;-75
2022/04/20 01:47:02;;;;;;;;;21.50;18.00;;;;;10.56;64.31;100358.25;5098200;27;46630;-75
2022/04/20 01:49:27;;;;;;;;;29.00;25.25;;;;;10.56;63.87;100363.53;5078343;27;45723;-76
2022/04/20 01:51:54;;;;;;;;;34.75;26.75;;;;;10.54;64.26;100361.88;5094123;27;45370;-76
2022/04/20 01:54:20;;;;;;;;;27.75;27.00;;;;;10.51;64.45;100365.44;5093516;27;45643;-75
2022/04/20 01:56:50;;;;;;;;;28.75;25.00;;;;;10.45;64.79;100366.44;5094430;27;46253;-76
2022/04/20 01:59:15;;;;;;;;;23.50;22.00;;;;;10.45;64.73;100366.44;5089165;27;45702;-75
2022/04/20 02:04:25;;;;;;;;;28.50;27.50;;;;;10.40;64.86;100368.31;5073172;28;45460;-76
2022/04/20 02:06:50;;;;;;;;;31.50;25.50;;;;;10.36;65.28;100360.50;5073207;28;45963;-76
2022/04/20 02:09:18;;;;;;;;;24.00;22.00;;;;;10.34;65.24;100363.19;5075135;27;45519;-76
2022/04/20 02:11:44;;;;;;;;;25.00;20.75;;;;;10.34;65.36;100364.94;5097842;27;45513;-76
2022/04/20 02:14:11;;;;;;;;;32.25;25.50;;;;;10.31;65.38;100352.66;5097408;27;45534;-76
2022/04/20 02:16:37;;;;;;;;;24.00;21.00;;;;;10.30;65.42;100362.31;5099769;27;45439;-77
2022/04/20 02:19:02;;;;;;;;;19.00;18.50;;;;;10.27;65.51;100350.97;5088111;27;45721;-77
2022/04/20 02:21:28;;;;;;;;;26.25;20.75;;;;;10.18;65.90;100341.47;5097715;27;45341;-76
2022/04/20 02:23:53;;;;;;;;;24.00;21.00;;;;;10.19;65.97;100344.97;5079207;27;45575;-76
2022/04/20 02:26:18;;;;;;;;;28.75;27.00;;;;;10.17;65.91;100345.00;5097168;27;46036;-76
2022/04/20 02:28:44;;;;;;;;;29.00;24.25;;;;;10.16;65.76;100331.84;5092911;27;45483;-76
2022/04/20 02:31:09;;;;;;;;;27.00;22.50;;;;;10.13;66.34;100341.56;5096380;27;45440;-75
2022/04/20 02:33:34;;;;;;;;;32.25;26.00;;;;;10.06;66.27;100324.13;5097283;27;45450;-76
2022/04/20 02:36:01;;;;;;;;;35.75;27.00;;;;;10.07;66.42;100336.44;5096704;27;46035;-76
2022/04/20 02:38:28;;;;;;;;;25.75;23.25;;;;;10.05;66.36;100325.03;5086004;27;45449;-76
2022/04/20 02:40:54;;;;;;;;;28.50;20.25;;;;;10.05;66.37;100325.03;5075781;28;45404;-76
2022/04/20 02:43:19;;;;;;;;;34.00;30.25;;;;;10.05;66.60;100324.16;5076667;28;45389;-76
2022/04/20 02:45:45;;;;;;;;;31.25;23.00;;;;;10.03;66.63;100321.53;5076536;28;46057;-77
2022/04/20 02:48:11;;;;;;;;;40.50;30.75;;;;;10.03;66.26;100321.53;5078355;28;45525;-77
2022/04/20 02:50:36;;;;;;;;;30.00;25.00;;;;;9.98;66.41;100312.88;5079237;28;45350;-76
2022/04/20 02:53:01;;;;;;;;;34.00;32.25;;;;;10.00;66.39;100315.47;5077490;27;45557;-76
2022/04/20 02:55:28;;;;;;;;;37.00;31.00;;;;;9.98;66.73;100315.50;5076113;28;45880;-76
2022/04/20 02:57:53;;;;;;;;;30.50;26.50;;;;;9.96;66.68;100306.75;5078539;27;45369;-76
2022/04/20 03:00:18;;;;;;;;;21.25;16.50;;;;;9.94;66.75;100314.72;5087563;27;45509;-76
2022/04/20 03:02:44;;;;;;;;;31.00;29.50;;;;;9.95;66.16;100313.78;5075811;28;45374;-75
2022/04/20 03:05:09;;;;;;;;;37.00;34.75;;;;;9.92;66.63;100303.28;5076390;28;46440;-76
2022/04/20 03:07:35;;;;;;;;;43.50;36.75;;;;;9.93;66.21;100301.53;5075082;27;45323;-76
2022/04/20 03:10:01;;;;;;;;;39.00;36.00;;;;;9.88;66.46;100292.84;5066656;27;45898;-77
2022/04/20 03:12:27;;;;;;;;;36.50;33.75;;;;;9.86;66.55;100295.50;5076052;28;45379;-76
2022/04/20 03:14:54;;;;;;;;;39.75;34.00;;;;;9.88;66.66;100301.63;5076158;28;45920;-76
2022/04/20 03:17:23;;;;;;;;;42.00;33.75;;;;;9.89;66.58;100297.22;5067743;27;45409;-76
2022/04/20 03:19:49;;;;;;;;;44.25;34.00;;;;;9.88;66.53;100293.69;5097363;27;45380;-76
2022/04/20 03:22:15;;;;;;;;;47.25;34.00;;;;;9.85;66.41;100292.91;5095643;27;45383;-77
2022/04/20 03:24:40;;;;;;;;;38.50;32.00;;;;;9.86;66.42;100299.94;5095472;27;45501;-77
2022/04/20 03:27:06;;;;;;;;;41.75;36.50;;;;;9.86;66.39;100307.84;5066053;28;45738;-77
2022/04/20 03:29:31;;;;;;;;;45.50;41.00;;;;;9.82;66.61;100308.81;5075508;28;45505;-77
2022/04/20 03:31:57;;;;;;;;;37.00;32.75;;;;;9.85;66.84;100314.03;5078940;27;45310;-76
2022/04/20 03:34:22;;;;;;;;;42.50;34.75;;;;;9.81;66.41;100307.06;5096633;27;46677;-76
2022/04/20 03:36:48;;;;;;;;;37.00;35.50;;;;;9.87;66.73;100325.41;5087665;27;45541;-76
2022/04/20 03:39:13;;;;;;;;;38.00;35.50;;;;;9.84;66.67;100325.47;5076001;28;45398;-76
2022/04/20 03:41:39;;;;;;;;;45.00;38.00;;;;;9.87;66.40;100320.13;5074989;28;45411;-76
2022/04/20 03:44:05;;;;;;;;;45.25;37.00;;;;;9.84;66.67;100325.47;5075805;28;45373;-76
2022/04/20 03:46:30;;;;;;;;;39.25;39.25;;;;;9.86;66.23;100328.97;5076650;27;45419;-76
2022/04/20 03:48:56;;;;;;;;;45.00;37.00;;;;;9.80;67.03;100318.53;5078172;27;45566;-76
2022/04/20 03:51:21;;;;;;;;;39.25;34.50;;;;;9.80;66.52;100329.97;5078304;28;45560;-75
2022/04/20 03:53:46;;;;;;;;;44.00;39.50;;;;;9.84;66.76;100338.66;5076492;28;45325;-76
2022/04/20 03:56:12;;;;;;;;;21.00;16.50;;;;;9.83;67.03;100343.09;5075445;27;45380;-75
2022/04/20 03:58:37;;;;;;;;;44.25;35.00;;;;;9.82;66.96;100337.84;5089058;27;45403;-76
2022/04/20 04:01:03;;;;;;;;;32.00;29.00;;;;;9.81;67.42;100338.72;5091906;27;45533;-76
2022/04/20 04:03:29;;;;;;;;;46.00;38.25;;;;;9.78;67.28;100337.91;5074909;28;45408;-76
2022/04/20 04:05:56;;;;;;;;;44.00;31.50;;;;;9.81;67.46;100336.09;5074469;28;45923;-75
2022/04/20 04:08:21;;;;;;;;;43.50;39.25;;;;;9.80;67.28;100334.38;5073820;27;45553;-76
2022/04/20 04:10:47;;;;;;;;;44.50;41.50;;;;;9.78;67.26;100334.41;5056098;28;45343;-76
2022/04/20 04:13:12;;;;;;;;;43.75;36.25;;;;;9.72;67.12;100314.28;5075354;28;45433;-77
2022/04/20 04:15:38;;;;;;;;;41.00;32.00;;;;;9.73;67.49;100323.06;5056085;27;45452;-77
2022/04/20 04:18:04;;;;;;;;;39.75;36.50;;;;;9.69;67.54;100324.03;5078020;27;45536;-76
2022/04/20 04:20:30;;;;;;;;;36.75;33.75;;;;;9.61;67.53;100313.66;5076829;28;45448;-77
2022/04/20 04:22:56;;;;;;;;;51.75;45.00;;;;;9.63;67.18;100327.66;5074564;28;45585;-76
2022/04/20 04:25:22;;;;;;;;;42.00;37.00;;;;;9.65;67.43;100333.78;5074838;28;45340;-76
2022/04/20 04:27:47;;;;;;;;;47.50;40.25;;;;;9.65;67.58;100335.56;5057544;28;45504;-77
2022/04/20 04:30:13;;;;;;;;;44.50;34.00;;;;;9.62;67.22;100325.06;5074355;28;45320;-77
2022/04/20 04:32:39;;;;;;;;;42.50;34.00;;;;;9.61;67.32;100326.84;5055912;27;47171;-77
2022/04/20 04:35:06;;;;;;;;;42.75;36.75;;;;;9.66;67.29;100335.53;5073682;28;45375;-77
2022/04/20 04:37:33;;;;;;;;;45.50;38.25;;;;;9.65;67.27;100335.56;5077880;27;45497;-76
2022/04/20 04:39:59;;;;;;;;;41.50;38.50;;;;;9.62;67.13;100336.47;5074265;28;45590;-76
2022/04/20 04:42:25;;;;;;;;;43.75;37.50;;;;;9.59;66.70;100332.13;5074326;28;46087;-76
2022/04/20 04:44:50;;;;;;;;;36.50;31.50;;;;;9.63;66.59;100342.63;5074582;28;45466;-76
2022/04/20 04:49:59;;;;;;;;;38.00;33.00;;;;;9.64;66.55;100339.97;5093786;27;45544;-77
2022/04/20 04:52:25;;;;;;;;;60.50;48.25;;;;;9.61;66.85;100345.31;5094332;27;53177;-76
2022/04/20 04:54:50;;;;;;;;;43.00;39.50;;;;;9.59;66.45;100347.09;5094370;27;45807;-74
2022/04/20 04:57:15;;;;;;;;;43.00;38.00;;;;;9.59;66.91;100349.72;5085207;27;45548;-76
2022/04/20 04:59:42;;;;;;;;;38.50;27.00;;;;;9.61;66.59;100345.31;5081042;27;45488;-76
2022/04/20 05:02:09;;;;;;;;;46.25;39.50;;;;;9.65;66.64;100348.75;5076448;27;47298;-76
2022/04/20 05:04:36;;;;;;;;;41.50;36.25;;;;;9.68;66.55;100341.63;5094929;27;45583;-77
2022/04/20 05:07:01;;;;;;;;;49.00;39.25;;;;;9.88;66.32;100346.50;5088364;27;45495;-76
2022/04/20 05:09:27;;;;;;;;;46.00;40.25;;;;;10.06;65.54;100331.19;5073428;28;45510;-77
2022/04/20 05:11:52;;;;;;;;;34.25;31.25;;;;;10.26;64.81;100344.81;5073454;27;45497;-76
2022/04/20 05:14:18;;;;;;;;;42.25;36.00;;;;;10.45;64.43;100340.00;5073755;28;45500;-76
2022/04/20 05:16:43;;;;;;;;;46.50;38.25;;;;;10.64;63.73;100340.47;5077940;27;45466;-76
2022/04/20 05:19:09;;;;;;;;;50.25;38.75;;;;;10.91;63.26;100338.03;5097146;27;45464;-77
2022/04/20 05:21:35;;;;;;;;;45.25;36.50;;;;;11.19;62.41;100335.56;5076903;27;47829;-77
2022/04/20 05:24:00;;;;;;;;;52.50;43.25;;;;;11.34;61.48;100330.75;5094248;27;45408;-76
2022/04/20 05:26:26;;;;;;;;;51.75;43.00;;;;;11.38;61.19;100337.69;5074133;27;45822;-75
2022/04/20 05:28:52;;;;;;;;;12.00;7.50;;;;;11.36;61.08;100336.88;5074999;27;45740;-76
2022/04/20 05:31:18;;;;;;;;;56.00;45.00;;;;;11.34;60.98;100341.34;5094672;27;45335;-76
2022/04/20 05:33:43;;;;;;;;;45.25;34.50;;;;;11.34;61.20;100336.94;5093703;27;45342;-76
2022/04/20 05:36:09;;;;;;;;;47.25;41.75;;;;;11.38;60.74;100350.94;5093801;27;45378;-77
2022/04/20 05:41:39;;;;;;;;;42.25;30.25;;;;;11.42;60.56;100351.72;5079275;27;45491;-75
2022/04/20 05:44:05;;;;;;;;;53.00;45.00;;;;;11.60;60.22;100352.97;5073681;28;45466;-77
2022/04/20 05:46:33;;;;;;;;;44.00;38.50;;;;;12.01;59.60;100350.97;5078644;27;45355;-77
2022/04/20 05:48:58;;;;;;;;;56.75;49.00;;;;;12.38;58.22;100347.22;5083634;27;45399;-76
2022/04/20 05:51:24;;;;;;;;;43.25;36.75;;;;;12.54;57.75;100335.22;5079756;27;45552;-76
2022/04/20 05:53:49;;;;;;;;;49.25;42.25;;;;;12.75;57.07;100346.03;5077279;28;45384;-76
2022/04/20 05:56:14;;;;;;;;;47.75;41.75;;;;;12.94;56.36;100343.66;5076742;28;45470;-76
2022/04/20 05:58:40;;;;;;;;;52.25;45.00;;;;;13.32;55.74;100337.03;5079829;27;45338;-77
2022/04/20 06:01:05;;;;;;;;;52.50;43.75;;;;;13.24;54.72;100338.22;5092506;27;54060;-77
2022/04/20 06:03:30;;;;;;;;;47.50;45.00;;;;;13.17;54.52;100334.91;5078619;28;45519;-76
2022/04/20 06:05:56;;;;;;;;;48.00;40.00;;;;;13.17;54.93;100337.56;5079365;28;45377;-77
2022/04/20 06:08:21;;;;;;;;;48.50;44.00;;;;;13.12;55.02;100321.81;5077898;27;45503;-77
2022/04/20 06:10:47;;;;;;;;;38.25;35.25;;;;;13.09;55.24;100329.03;5075809;28;45536;-75
2022/04/20 06:13:12;;;;;;;;;42.25;36.75;;;;;12.95;55.17;100333.00;5076773;28;45426;-77
2022/04/20 06:15:38;;;;;;;;;53.00;40.25;;;;;12.91;55.54;100341.13;5077587;27;45497;-76
2022/04/20 06:18:03;;;;;;;;;43.75;33.25;;;;;12.88;55.70;100336.75;5080874;27;45373;-76
2022/04/20 06:20:29;;;;;;;;;53.00;46.00;;;;;12.86;55.80;100343.03;5078865;27;46024;-77
2022/04/20 06:22:55;;;;;;;;;60.50;44.25;;;;;12.79;55.91;100342.38;5079301;27;45489;-76
2022/04/20 06:25:21;;;;;;;;;53.25;46.75;;;;;12.74;55.98;100333.72;5097088;27;45455;-76
2022/04/20 06:27:46;;;;;;;;;50.50;43.50;;;;;12.76;56.21;100347.78;5089070;27;45442;-76
2022/04/20 06:30:12;;;;;;;;;49.00;33.75;;;;;12.71;55.89;100339.97;5077307;27;45433;-78
2022/04/20 06:32:37;;;;;;;;;53.25;45.50;;;;;12.77;56.39;100342.44;5095378;27;45491;-77
2022/04/20 06:35:03;;;;;;;;;40.50;34.50;;;;;12.81;55.87;100335.22;5095560;27;45527;-78
2022/04/20 06:37:29;;;;;;;;;51.75;43.50;;;;;12.89;55.70;100337.63;5087654;27;45630;-75
2022/04/20 06:39:56;;;;;;;;;48.75;39.00;;;;;13.02;55.17;100332.78;5091958;27;45463;-75
2022/04/20 06:42:22;;;;;;;;;50.50;42.75;;;;;13.35;53.69;100329.94;5096635;27;45392;-76
2022/04/20 06:44:47;;;;;;;;;43.50;35.75;;;;;13.77;52.88;100334.59;5085649;27;45558;-76
2022/04/20 06:47:12;;;;;;;;;44.25;37.25;;;;;14.10;51.69;100334.25;5076480;27;45362;-76
2022/04/20 06:49:37;;;;;;;;;50.75;41.50;;;;;14.60;50.23;100331.38;5084285;27;46134;-76
2022/04/20 07:00:35;;;;;;;;;45.75;38.25;;;;;15.53;48.25;100331.06;4987563;28;45903;-75
2022/04/20 07:03:02;;;;;;;;;49.00;44.50;;;;;15.43;47.53;100329.72;4971260;28;45402;-76
2022/04/20 07:05:30;;;;;;;;;42.25;36.25;;;;;15.44;47.67;100334.97;4974149;28;45570;-78
2022/04/20 07:07:55;;;;;;;;;52.75;44.50;;;;;15.28;47.01;100323.25;4975017;28;45490;-82
2022/04/20 07:10:21;;;;;;;;;34.25;31.50;;;;;15.24;47.51;100337.63;4981759;28;46358;-81
2022/04/20 07:12:46;;;;;;;;;47.50;43.25;;;;;15.56;46.69;100330.03;4974438;28;45391;-80
2022/04/20 07:15:11;;;;;;;;;47.25;39.75;;;;;15.86;46.09;100330.47;4981320;28;45541;-80
2022/04/20 07:17:37;;;;;;;;;43.75;36.25;;;;;16.35;45.44;100340.63;5006237;28;45631;-75
2022/04/20 07:20:10;;;;;;;;;31.75;29.75;;;;;16.82;44.07;100336.59;4995811;28;47477;-74
2022/04/20 07:22:37;;;;;;;;;49.75;40.50;;;;;17.31;42.78;100335.94;5005706;28;45499;-76
2022/04/20 07:25:03;;;;;;;;;48.75;36.25;;;;;17.98;41.78;100330.69;5008544;28;45663;-76
2022/04/20 07:27:28;;;;;;;;;42.50;35.00;;;;;18.59;40.52;100321.03;5005806;28;45444;-74
2022/04/20 07:29:53;;;;;;;;;36.00;33.50;;;;;19.09;39.17;100335.13;4992640;28;46473;-75
2022/04/20 07:32:19;;;;;;;;;33.50;30.75;;;;;19.59;38.70;100328.50;5071966;27;45454;-76
2022/04/20 07:34:44;;;;;;;;;45.00;35.50;;;;;19.87;37.14;100326.81;5081491;27;45524;-77
2022/04/20 07:37:09;;;;;;;;;49.50;42.50;;;;;20.01;36.78;100342.03;5074601;27;45398;-81
2022/04/20 07:39:35;;;;;;;;;45.25;38.50;;;;;20.25;36.15;100336.94;5074900;27;45439;-80
2022/04/20 07:42:00;;;;;;;;;36.00;32.25;;;;;20.59;35.89;100338.28;5094595;27;45429;-83
2022/04/20 07:44:26;;;;;;;;;45.50;36.50;;;;;20.79;35.31;100328.09;5093666;27;45556;-82
2022/04/20 07:46:51;;;;;;;;;35.00;30.75;;;;;21.15;35.73;100325.69;5093617;27;45651;-81
2022/04/20 07:52:00;;;;;;;;;27.00;24.25;;;;;21.52;34.38;100328.59;5080033;27;45363;-81
2022/04/20 07:54:25;;;;;;;;;40.00;36.00;;;;;21.73;33.87;100327.06;5074811;28;45421;-81
2022/04/20 07:56:51;;;;;;;;;33.00;30.25;;;;;21.98;32.91;100325.31;5088212;27;45436;-81
2022/04/20 07:59:16;;;;;;;;;37.50;32.75;;;;;21.88;32.63;100324.25;5092798;27;46290;-81
2022/04/20 08:01:41;;;;;;;;;38.00;34.00;;;;;22.27;31.92;100325.03;5088487;27;45311;-81
2022/04/20 08:04:07;;;;;;;;;35.25;30.25;;;;;22.52;31.91;100313.38;5095588;27;45400;-81
2022/04/20 08:06:33;;;;;;;;;33.00;27.25;;;;;23.10;31.33;100318.91;5077118;27;45394;-80
2022/04/20 08:08:59;;;;;;;;;34.00;26.00;;;;;23.57;30.07;100317.03;5077616;27;47108;-81
2022/04/20 08:11:25;;;;;;;;;40.00;31.25;;;;;23.86;29.83;100326.56;5076234;27;45351;-82
2022/04/20 08:16:34;;;;;;;;;39.00;34.00;;;;;24.50;29.21;100322.31;5079083;28;45269;-81
2022/04/20 08:18:59;;;;;;;;;28.50;21.75;;;;;24.16;27.88;100320.53;5079477;28;45450;-81
2022/04/20 08:21:25;;;;;;;;;30.50;28.50;;;;;24.35;28.58;100317.16;5074525;28;45396;-77
2022/04/20 08:23:50;;;;;;;;;25.25;22.25;;;;;24.67;27.45;100310.13;5074191;28;51987;-77
2022/04/20 08:26:15;;;;;;;;;29.25;28.75;;;;;24.83;27.39;100305.16;5054703;27;45547;-77
2022/04/20 08:28:41;;;;;;;;;21.00;21.00;;;;;25.09;27.45;100324.56;5091745;27;46319;-76
2022/04/20 08:31:06;;;;;;;;;23.25;18.00;;;;;25.32;27.60;100321.75;5094443;27;45369;-76
2022/04/20 08:33:33;;;;;;;;;27.75;23.75;;;;;25.60;26.09;100320.22;5094427;27;45428;-77
2022/04/20 08:35:59;;;;;;;;;33.00;29.00;;;;;25.84;25.93;100321.75;5094298;27;45376;-77
2022/04/20 08:38:24;;;;;;;;;21.75;17.50;;;;;26.02;25.92;100319.28;5081818;27;46115;-77
2022/04/20 08:40:53;;;;;;;;;28.00;25.25;;;;;25.90;25.68;100321.22;5072952;27;45555;-77
2022/04/20 08:43:19;;;;;;;;;22.00;14.50;;;;;25.67;26.31;100318.69;5056811;28;45528;-77
2022/04/20 08:45:48;;;;;;;;;23.50;20.50;;;;;25.29;26.69;100333.69;5077466;28;45528;-78
2022/04/20 08:48:14;;;;;;;;;23.25;19.75;;;;;25.29;26.72;100327.41;5088967;27;45613;-80
2022/04/20 08:50:40;;;;;;;;;22.25;15.00;;;;;24.82;26.55;100336.72;5082142;27;45521;-77
2022/04/20 08:53:05;;;;;;;;;21.00;20.50;;;;;25.13;25.78;100322.47;5055798;28;45504;-77
2022/04/20 08:55:31;;;;;;;;;21.25;20.75;;;;;25.35;26.12;100326.91;5073840;28;45489;-78
2022/04/20 08:57:56;;;;;;;;;24.50;22.00;;;;;25.64;25.49;100332.47;5073319;27;45770;-77
2022/04/20 09:00:25;;;;;;;;;24.75;19.50;;;;;25.89;25.25;100330.34;5079343;27;45436;-80
2022/04/20 09:02:53;;;;;;;;;18.00;16.50;;;;;26.44;24.81;100329.13;5094852;27;45452;-81
2022/04/20 09:05:20;;;;;;;;;18.00;17.50;;;;;26.55;24.63;100321.72;5076561;27;45413;-81
2022/04/20 09:07:45;;;;;;;;;22.50;18.50;;;;;26.72;23.72;100322.94;5090682;27;45938;-82
2022/04/20 09:10:11;;;;;;;;;25.25;20.75;;;;;27.02;23.85;100306.66;5073860;27;45574;-81
2022/04/20 09:12:42;;;;;;;;;21.00;20.00;;;;;27.22;23.31;100312.91;5075649;28;45533;-77
2022/04/20 09:15:09;;;;;;;;;20.25;20.25;;;;;26.95;23.93;100306.34;5075410;28;45383;-78
2022/04/20 09:17:41;;;;;;;;;13.25;11.50;;;;;26.95;23.63;100307.22;5080671;27;45517;-75
2022/04/20 09:20:09;;;;;;;;;20.50;16.00;;;;;27.17;23.53;100309.78;5093057;27;45382;-78
2022/04/20 09:22:35;;;;;;;;;19.50;16.25;;;;;27.32;23.84;100302.94;5077532;28;45332;-77
2022/04/20 09:25:04;;;;;;;;;21.25;19.50;;;;;27.58;23.76;100307.72;5075984;28;45698;-78
2022/04/20 09:27:33;;;;;;;;;21.25;21.25;;;;;27.42;23.21;100311.91;5077743;27;45522;-79
2022/04/20 09:29:59;;;;;;;;;19.25;18.00;;;;;26.70;23.77;100297.81;5065154;27;45410;-80
2022/04/20 09:32:39;;;;;;;;;15.25;14.00;;;;;26.19;24.26;100288.00;5084153;27;45355;-80
2022/04/20 09:35:07;;;;;;;;;20.50;20.25;;;;;26.37;24.50;100305.31;5085176;27;45494;-80
2022/04/20 09:37:34;;;;;;;;;23.25;21.25;;;;;26.53;24.59;100306.59;5084254;27;46229;-81
2022/04/20 09:40:00;;;;;;;;;18.25;17.75;;;;;26.68;24.32;100299.81;5084497;27;45485;-81
2022/04/20 09:42:26;;;;;;;;;14.50;14.25;;;;;26.37;24.52;100307.13;5091480;27;45460;-82
2022/04/20 09:44:59;;;;;;;;;20.75;18.75;;;;;26.52;24.25;100304.88;5084357;27;45268;-80
2022/04/20 09:50:11;;;;;;;;;21.00;16.00;;;;;26.57;25.06;100292.63;5078872;27;45513;-81
2022/04/20 09:52:41;;;;;;;;;18.25;17.50;;;;;26.59;24.21;100300.63;5077861;28;45842;-84
2022/04/20 09:55:10;;;;;;;;;17.00;15.50;;;;;26.48;24.37;100292.63;5077949;28;45522;-80
2022/04/20 09:57:37;;;;;;;;;19.75;17.00;;;;;26.50;24.33;100294.19;5079688;27;46212;-78
2022/04/20 10:00:05;;;;;;;;;16.00;16.00;;;;;26.85;24.59;100297.38;5080374;27;45358;-82
2022/04/20 10:02:36;;;;;;;;;21.50;16.50;;;;;27.10;24.39;100291.38;5075885;28;45409;-81
2022/04/20 10:05:02;;;;;;;;;21.75;19.75;;;;;27.41;24.37;100287.63;5075474;28;45542;-82
2022/04/20 10:07:28;;;;;;;;;9.75;7.50;;;;;27.04;23.74;100280.25;5078875;27;46404;-82
2022/04/20 10:09:53;;;;;;;;;16.50;14.75;;;;;27.11;24.01;100287.66;5075601;27;45581;-81
2022/04/20 10:12:19;;;;;;;;;16.25;14.75;;;;;27.49;23.51;100282.31;5076469;28;45411;-77
2022/04/20 10:17:43;;;;;;;;;2.00;0.00;;;;;27.45;23.71;100287.19;5080912;28;45829;-77
2022/04/20 10:20:09;;;;;;;;;22.00;18.50;;;;;27.46;24.20;100294.31;5076010;28;45476;-75
2022/04/20 10:22:37;;;;;;;;;15.00;13.75;;;;;27.12;24.43;100286.66;5076965;28;45458;-77
2022/04/20 10:25:05;;;;;;;;;18.25;16.25;;;;;27.09;24.32;100270.69;5080904;27;45585;-77
2022/04/20 10:27:58;;;;;;;;;13.50;13.25;;;;;27.37;24.50;100273.50;5076705;28;46381;-78
2022/04/20 10:30:45;;;;;;;;;18.25;17.25;;;;;27.56;24.40;100266.28;5076294;28;45435;-78
2022/04/20 10:33:20;;;;;;;;;15.75;12.25;;;;;27.39;24.54;100271.50;5075910;27;45418;-77
2022/04/20 10:35:58;;;;;;;;;18.00;15.75;;;;;26.68;25.27;100267.28;5082764;27;45504;-78
2022/04/20 10:38:24;;;;;;;;;11.75;11.50;;;;;26.90;25.73;100259.84;5096109;27;45638;-79
2022/04/20 10:40:56;;;;;;;;;14.25;14.25;;;;;27.09;25.38;100276.09;5081996;27;45461;-77
2022/04/20 10:43:24;;;;;;;;;14.75;12.00;;;;;27.07;24.93;100266.38;5097512;27;45623;-79
2022/04/20 10:46:03;;;;;;;;;18.25;14.50;;;;;27.19;24.99;100269.81;5083469;27;45435;-79
2022/04/20 10:49:07;;;;;;;;;7.00;7.00;;;;;27.51;24.76;100252.31;5085663;27;45529;-78
2022/04/20 10:51:43;;;;;;;;;14.50;11.00;;;;;27.83;24.79;100244.63;5078189;27;45566;-79
2022/04/20 10:54:48;;;;;;;;;10.25;7.75;;;;;27.81;24.65;100238.47;5094820;27;45384;-79
2022/04/20 10:57:13;;;;;;;;;9.50;9.50;;;;;27.65;25.13;100232.88;5086137;27;45335;-78
2022/04/20 10:59:40;;;;;;;;;6.50;4.00;;;;;27.88;24.13;100243.28;5083602;27;46144;-80
2022/04/20 11:02:07;;;;;;;;;7.50;7.50;;;;;27.60;25.04;100232.44;5077801;27;45470;-78
2022/04/20 11:04:50;;;;;;;;;11.00;9.00;;;;;27.42;24.49;100240.50;5078428;27;45424;-77
2022/04/20 11:07:26;;;;;;;;;12.75;12.75;;;;;27.78;23.93;100238.78;5076000;27;45399;-76
2022/04/20 11:10:05;;;;;;;;;10.25;9.00;;;;;27.76;23.91;100223.66;5074825;27;46213;-77
2022/04/20 11:21:03;;;;;;;;;1.75;1.75;;;;;27.19;24.47;100235.38;5060474;28;45506;-78
2022/04/20 11:24:01;;;;;;;;;2.00;1.00;;;;;27.07;23.83;100229.31;5077159;27;45402;-78
2022/04/20 11:26:30;;;;;;;;;8.75;6.00;;;;;27.13;23.73;100227.84;5085804;27;45476;-78
2022/04/20 11:28:58;;;;;;;;;4.00;2.75;;;;;27.16;23.77;100232.13;5074930;27;45489;-77
2022/04/20 11:31:24;;;;;;;;;6.00;5.00;;;;;27.31;22.66;100241.50;5075347;27;45537;-78
2022/04/20 11:33:51;;;;;;;;;4.50;4.50;;;;;26.91;22.75;100229.03;5075443;27;45371;-77
2022/04/20 11:36:17;;;;;;;;;2.00;2.00;;;;;26.53;22.79;100225.34;5077596;27;45475;-78
2022/04/20 11:38:44;;;;;;;;;3.00;1.25;;;;;26.30;23.50;100214.78;5057758;28;45616;-78
2022/04/20 11:41:11;;;;;;;;;5.50;5.50;;;;;26.38;23.01;100212.19;5074966;28;46177;-79
2022/04/20 11:43:40;;;;;;;;;6.50;2.50;;;;;26.28;22.13;100216.75;5082048;27;45482;-76
2022/04/20 11:46:07;;;;;;;;;4.25;4.25;;;;;26.11;22.25;100221.00;5089014;27;45524;-77